Mugan — 9HA2962 — position and weather

sailwx.info

Track history (hours):
 
Tides and Currents Weather Stations Pressure Air Temp Water Temp Dewpoint Dewpoint Depression Visibility Wind Speed Wind Dir Waves Ship Positions

Mugan

Last reported at 2017-Aug-31 04:58 UTC. Time now 2017-Sep-23 16:43 UTC.
Position N 37°49' W 000°18'.
Warning: this ship's position is 23 days out of date.

Length 140 m; draft 3.4 m.

Type: Ship. MMSI: 256914000.

Date/timePositionNaut miles runAvg speedWind from/ knotsBaromVisibWave heightAir tempDewpointWater temp
2017-Aug-31 04:58N 37°49' W 000°18'710.8
2017-Aug-31 04:19N 37°43' W 000°23'310.7
2017-Aug-31 04:00N 37°40' W 000°25'510.7
2017-Aug-31 03:30N 37°35' W 000°29'610.5
2017-Aug-31 02:56N 37°31' W 000°35'510.8
2017-Aug-31 02:27N 37°31' W 000°41'511.0
2017-Aug-31 02:00N 37°31' W 000°47'7 0.2
2017-Aug-29 13:38N 37°31' W 000°56'1 8.7
2017-Aug-29 13:28N 37°31' W 000°54'4 9.1
2017-Aug-29 13:00N 37°32' W 000°49'5 9.2
2017-Aug-29 12:30N 37°32' W 000°43'7 9.0
2017-Aug-29 11:43N 37°34' W 000°34'2 9.6
2017-Aug-29 11:28N 37°36' W 000°32'5 9.8
2017-Aug-29 11:00N 37°40' W 000°29'510.1
2017-Aug-29 10:30N 37°44' W 000°26'58 9.8
2017-Aug-29 04:34N 38°33' E 000°14'2 9.7
2017-Aug-29 04:23N 38°35' E 000°16'36 9.5
2017-Aug-29 00:39N 39°06' E 000°37'2 9.3
2017-Aug-29 00:24N 39°08' E 000°38'6 9.5
2017-Aug-28 23:47N 39°14' E 000°41'3 9.4
2017-Aug-28 23:30N 39°16' E 000°43'29 9.6
2017-Aug-28 20:29N 39°42' E 000°59'11 9.9
2017-Aug-28 19:21N 39°52' E 001°05'410.0
2017-Aug-28 18:59N 39°56' E 001°07'5 9.8
2017-Aug-28 18:30N 39°60' E 001°10'510.1
2017-Aug-28 18:00N 40°04' E 001°13'510.1
2017-Aug-28 17:30N 40°09' E 001°15'510.1
2017-Aug-28 17:00N 40°14' E 001°18'510.2
2017-Aug-28 16:30N 40°18' E 001°21'510.4
2017-Aug-28 16:00N 40°23' E 001°24'510.1
2017-Aug-28 15:30N 40°27' E 001°27'5 9.9
2017-Aug-28 15:00N 40°32' E 001°30'6 9.8
2017-Aug-28 14:25N 40°37' E 001°33'4 9.4
2017-Aug-28 14:00N 40°41' E 001°34'5 9.7
2017-Aug-28 13:30N 40°45' E 001°32'5 9.9
2017-Aug-28 12:57N 40°50' E 001°27'5 9.9
2017-Aug-28 12:30N 40°53' E 001°24'5 9.8
2017-Aug-28 11:58N 40°57' E 001°20'5 9.8
2017-Aug-28 11:30N 41°01' E 001°16'5 9.4
2017-Aug-28 11:00N 41°05' E 001°12'12 0.8
2017-Aug-27 19:40N 40°55' E 001°22'210.5
2017-Aug-27 19:30N 40°53' E 001°24'510.5
2017-Aug-27 19:00N 40°49' E 001°28'510.5
2017-Aug-27 18:30N 40°45' E 001°32'510.4
2017-Aug-27 18:00N 40°40' E 001°35'510.6
2017-Aug-27 17:31N 40°35' E 001°32'510.8
2017-Aug-27 17:00N 40°30' E 001°29'510.6
2017-Aug-27 16:30N 40°26' E 001°26'510.2
2017-Aug-27 16:00N 40°21' E 001°24'510.3
2017-Aug-27 15:30N 40°16' E 001°21'510.5
2017-Aug-27 14:59N 40°11' E 001°18'510.4
2017-Aug-27 14:31N 40°07' E 001°16'510.5
2017-Aug-27 14:00N 40°02' E 001°13'510.4
2017-Aug-27 13:30N 39°57' E 001°10'510.5
2017-Aug-27 13:00N 39°52' E 001°07'510.6
2017-Aug-27 12:30N 39°47' E 001°05'510.4
2017-Aug-27 12:00N 39°43' E 001°02'2910.6
2017-Aug-27 09:13N 39°16' E 000°47'310.4
2017-Aug-27 08:56N 39°13' E 000°45'410.4
2017-Aug-27 08:30N 39°09' E 000°43'710.5
2017-Aug-27 07:51N 39°03' E 000°39'410.5
2017-Aug-27 07:30N 38°59' E 000°38'510.6
2017-Aug-27 07:00N 38°54' E 000°35'510.7
2017-Aug-27 06:30N 38°49' E 000°32'1410.4
2017-Aug-27 05:12N 38°37' E 000°24'210.0
2017-Aug-27 05:01N 38°36' E 000°23'610.0
2017-Aug-27 04:28N 38°31' E 000°19'4 9.9
2017-Aug-27 04:01N 38°28' E 000°16'5 9.9
2017-Aug-27 03:30N 38°23' E 000°12'510.0
2017-Aug-27 03:00N 38°19' E 000°08'510.0
2017-Aug-27 02:31N 38°15' E 000°05'5 9.9
2017-Aug-27 01:59N 38°11' E 000°01'5 9.8
2017-Aug-27 01:30N 38°07' W 000°02'1810.1
2017-Aug-26 23:44N 37°52' W 000°15'410.5
2017-Aug-26 23:22N 37°49' W 000°18'410.6
2017-Aug-26 23:00N 37°46' W 000°20'510.6
2017-Aug-26 22:30N 37°41' W 000°24'510.5
2017-Aug-26 22:00N 37°37' W 000°28'610.5
2017-Aug-26 21:28N 37°32' W 000°32'510.4
2017-Aug-26 21:00N 37°31' W 000°38'611.2
2017-Aug-26 20:30N 37°31' W 000°45'11 0.4
2017-Aug-25 18:29N 37°33' W 000°59'3 5.6
2017-Aug-25 17:52N 37°31' W 000°55'3 9.0
2017-Aug-25 17:30N 37°31' W 000°51'5 9.3
2017-Aug-25 16:59N 37°32' W 000°45'5 9.4
2017-Aug-25 16:26N 37°33' W 000°39'4 9.0
2017-Aug-25 16:00N 37°34' W 000°34'5 9.6
2017-Aug-25 15:30N 37°38' W 000°30'5 9.4
2017-Aug-25 15:00N 37°42' W 000°27'19 9.5
2017-Aug-25 13:03N 37°58' W 000°14'1 9.6
2017-Aug-25 12:59N 37°58' W 000°14'17 9.6
2017-Aug-25 11:13N 38°12' W 000°03'2 9.5
2017-Aug-25 10:59N 38°14' W 000°01'5 9.6
2017-Aug-25 10:30N 38°18' E 000°02'5 9.8
2017-Aug-25 10:00N 38°22' E 000°06'5 9.7
2017-Aug-25 09:30N 38°26' E 000°09'5 9.9
2017-Aug-25 08:59N 38°31' E 000°12'6 9.8
2017-Aug-25 08:21N 38°35' E 000°17'4 9.8
2017-Aug-25 07:55N 38°39' E 000°20'4 9.5
2017-Aug-25 07:30N 38°42' E 000°23'5 9.4
2017-Aug-25 07:01N 38°47' E 000°25'5 9.4
2017-Aug-25 06:31N 38°51' E 000°27'60 9.6
2017-Aug-25 00:13N 39°45' E 001°01'2 9.9
2017-Aug-25 00:00N 39°47' E 001°02'5 9.8
2017-Aug-24 23:27N 39°52' E 001°05'5 9.8
2017-Aug-24 22:58N 39°57' E 001°08'4 9.7
2017-Aug-24 22:30N 40°01' E 001°10'5 9.9
2017-Aug-24 22:00N 40°05' E 001°13'5 9.9
2017-Aug-24 21:29N 40°10' E 001°16'610.1
2017-Aug-24 20:52N 40°15' E 001°19'410.4
2017-Aug-24 20:31N 40°19' E 001°21'510.4
2017-Aug-24 20:00N 40°23' E 001°24'510.2
2017-Aug-24 19:30N 40°28' E 001°27'510.1
2017-Aug-24 19:01N 40°33' E 001°30'510.1
2017-Aug-24 18:30N 40°37' E 001°33'5 9.4
2017-Aug-24 18:00N 40°42' E 001°34'510.0
2017-Aug-24 17:30N 40°46' E 001°31'510.1
2017-Aug-24 17:01N 40°50' E 001°27'510.1
2017-Aug-24 16:30N 40°54' E 001°23'510.0
2017-Aug-24 16:00N 40°58' E 001°19'510.1
2017-Aug-24 15:30N 41°02' E 001°15'3 0.2
2017-Aug-24 01:04N 41°05' E 001°12'0 0.1
2017-Aug-24 01:00N 41°05' E 001°12'2 3.4
2017-Aug-24 00:30N 41°04' E 001°13'5 9.7
2017-Aug-24 00:00N 40°60' E 001°17'510.1
2017-Aug-23 23:30N 40°56' E 001°21'510.1
2017-Aug-23 23:00N 40°52' E 001°25'510.1
2017-Aug-23 22:29N 40°48' E 001°29'5 9.9
2017-Aug-23 22:00N 40°44' E 001°33'5 9.6
2017-Aug-23 21:30N 40°39' E 001°34'510.2
2017-Aug-23 21:00N 40°35' E 001°32'510.2
2017-Aug-23 20:30N 40°30' E 001°29'510.1
2017-Aug-23 20:00N 40°25' E 001°26'5 9.7
2017-Aug-23 19:30N 40°21' E 001°24'5 9.8
2017-Aug-23 19:00N 40°16' E 001°21'5 9.9
2017-Aug-23 18:30N 40°12' E 001°18'510.2
2017-Aug-23 18:00N 40°07' E 001°16'510.1
2017-Aug-23 17:30N 40°02' E 001°13'510.1
2017-Aug-23 17:00N 39°58' E 001°11'510.0
2017-Aug-23 16:28N 39°53' E 001°08'510.0
2017-Aug-23 16:00N 39°49' E 001°05'610.1
2017-Aug-23 15:25N 39°43' E 001°02'3410.3
2017-Aug-23 12:06N 39°12' E 000°44'310.2
2017-Aug-23 11:50N 39°09' E 000°43'510.3
2017-Aug-23 11:23N 39°05' E 000°41'1310.6
2017-Aug-23 10:12N 38°53' E 000°34'210.2
2017-Aug-23 10:00N 38°52' E 000°33'510.2
2017-Aug-23 09:30N 38°47' E 000°31'1010.2
2017-Aug-23 08:29N 38°38' E 000°24'510.3
2017-Aug-23 08:00N 38°34' E 000°21'510.3
2017-Aug-23 07:30N 38°30' E 000°17'510.3
2017-Aug-23 07:00N 38°25' E 000°13'510.4
2017-Aug-23 06:30N 38°21' E 000°10'510.1
2017-Aug-23 06:00N 38°17' E 000°06'5 9.9
2017-Aug-23 05:30N 38°12' E 000°03'510.0
2017-Aug-23 05:00N 38°08' W 000°01'510.2
2017-Aug-23 04:30N 38°04' W 000°04'610.3
2017-Aug-23 03:57N 37°59' W 000°08'410.2
2017-Aug-23 03:30N 37°56' W 000°12'510.1
2017-Aug-23 03:00N 37°51' W 000°15'610.2
2017-Aug-23 02:27N 37°47' W 000°19'510.2
2017-Aug-23 02:00N 37°43' W 000°23'510.2
2017-Aug-23 01:30N 37°39' W 000°26'510.2
2017-Aug-23 01:00N 37°34' W 000°30'510.0
2017-Aug-23 00:30N 37°31' W 000°34'510.5
2017-Aug-22 23:59N 37°31' W 000°41'510.7
2017-Aug-22 23:30N 37°31' W 000°48'14 0.6
2017-Aug-22 01:08N 37°33' W 001°06'0 0.0
2017-Aug-22 00:38N 37°33' W 001°06'0 0.1
2017-Aug-22 00:26N 37°33' W 001°06'0 0.6
2017-Aug-22 00:01N 37°33' W 001°06'5 8.3
2017-Aug-21 23:25N 37°32' W 000°60'4 9.2
2017-Aug-21 23:01N 37°31' W 000°55'5 9.4
2017-Aug-21 22:30N 37°32' W 000°49'11 9.3
2017-Aug-21 21:22N 37°33' W 000°36'4 9.1
2017-Aug-21 20:55N 37°36' W 000°32'5 9.1
2017-Aug-21 20:25N 37°40' W 000°29'4 9.3
2017-Aug-21 20:00N 37°43' W 000°26'18 9.1
2017-Aug-21 18:00N 37°58' W 000°14'  
Track history (hours):
 
Tides and Currents Weather Stations Pressure Air Temp Water Temp Dewpoint Dewpoint Depression Visibility Wind Speed Wind Dir Waves Ship Positions

Mugan

Last reported at 2017-Aug-31 04:58 UTC. Time now 2017-Sep-23 16:43 UTC.
Position N 37°49' W 000°18'.
Warning: this ship's position is 23 days out of date.

Length 140 m; draft 3.4 m.

Type: Ship. MMSI: 256914000.

Date/timePositionNaut miles runAvg speedWind from/ knotsBaromVisibWave heightAir tempDewpointWater temp
2017-Aug-31 04:58N 37°49' W 000°18'710.8
2017-Aug-31 04:19N 37°43' W 000°23'310.7
2017-Aug-31 04:00N 37°40' W 000°25'510.7
2017-Aug-31 03:30N 37°35' W 000°29'610.5
2017-Aug-31 02:56N 37°31' W 000°35'510.8
2017-Aug-31 02:27N 37°31' W 000°41'511.0
2017-Aug-31 02:00N 37°31' W 000°47'7 0.2
2017-Aug-29 13:38N 37°31' W 000°56'1 8.7
2017-Aug-29 13:28N 37°31' W 000°54'4 9.1
2017-Aug-29 13:00N 37°32' W 000°49'5 9.2
2017-Aug-29 12:30N 37°32' W 000°43'7 9.0
2017-Aug-29 11:43N 37°34' W 000°34'2 9.6
2017-Aug-29 11:28N 37°36' W 000°32'5 9.8
2017-Aug-29 11:00N 37°40' W 000°29'510.1
2017-Aug-29 10:30N 37°44' W 000°26'58 9.8
2017-Aug-29 04:34N 38°33' E 000°14'2 9.7
2017-Aug-29 04:23N 38°35' E 000°16'36 9.5
2017-Aug-29 00:39N 39°06' E 000°37'2 9.3
2017-Aug-29 00:24N 39°08' E 000°38'6 9.5
2017-Aug-28 23:47N 39°14' E 000°41'3 9.4
2017-Aug-28 23:30N 39°16' E 000°43'29 9.6
2017-Aug-28 20:29N 39°42' E 000°59'11 9.9
2017-Aug-28 19:21N 39°52' E 001°05'410.0
2017-Aug-28 18:59N 39°56' E 001°07'5 9.8
2017-Aug-28 18:30N 39°60' E 001°10'510.1
2017-Aug-28 18:00N 40°04' E 001°13'510.1
2017-Aug-28 17:30N 40°09' E 001°15'510.1
2017-Aug-28 17:00N 40°14' E 001°18'510.2
2017-Aug-28 16:30N 40°18' E 001°21'510.4
2017-Aug-28 16:00N 40°23' E 001°24'510.1
2017-Aug-28 15:30N 40°27' E 001°27'5 9.9
2017-Aug-28 15:00N 40°32' E 001°30'6 9.8
2017-Aug-28 14:25N 40°37' E 001°33'4 9.4
2017-Aug-28 14:00N 40°41' E 001°34'5 9.7
2017-Aug-28 13:30N 40°45' E 001°32'5 9.9
2017-Aug-28 12:57N 40°50' E 001°27'5 9.9
2017-Aug-28 12:30N 40°53' E 001°24'5 9.8
2017-Aug-28 11:58N 40°57' E 001°20'5 9.8
2017-Aug-28 11:30N 41°01' E 001°16'5 9.4
2017-Aug-28 11:00N 41°05' E 001°12'12 0.8
2017-Aug-27 19:40N 40°55' E 001°22'210.5
2017-Aug-27 19:30N 40°53' E 001°24'510.5
2017-Aug-27 19:00N 40°49' E 001°28'510.5
2017-Aug-27 18:30N 40°45' E 001°32'510.4
2017-Aug-27 18:00N 40°40' E 001°35'510.6
2017-Aug-27 17:31N 40°35' E 001°32'510.8
2017-Aug-27 17:00N 40°30' E 001°29'510.6
2017-Aug-27 16:30N 40°26' E 001°26'510.2
2017-Aug-27 16:00N 40°21' E 001°24'510.3
2017-Aug-27 15:30N 40°16' E 001°21'510.5
2017-Aug-27 14:59N 40°11' E 001°18'510.4
2017-Aug-27 14:31N 40°07' E 001°16'510.5
2017-Aug-27 14:00N 40°02' E 001°13'510.4
2017-Aug-27 13:30N 39°57' E 001°10'510.5
2017-Aug-27 13:00N 39°52' E 001°07'510.6
2017-Aug-27 12:30N 39°47' E 001°05'510.4
2017-Aug-27 12:00N 39°43' E 001°02'2910.6
2017-Aug-27 09:13N 39°16' E 000°47'310.4
2017-Aug-27 08:56N 39°13' E 000°45'410.4
2017-Aug-27 08:30N 39°09' E 000°43'710.5
2017-Aug-27 07:51N 39°03' E 000°39'410.5
2017-Aug-27 07:30N 38°59' E 000°38'510.6
2017-Aug-27 07:00N 38°54' E 000°35'510.7
2017-Aug-27 06:30N 38°49' E 000°32'1410.4
2017-Aug-27 05:12N 38°37' E 000°24'210.0
2017-Aug-27 05:01N 38°36' E 000°23'610.0
2017-Aug-27 04:28N 38°31' E 000°19'4 9.9
2017-Aug-27 04:01N 38°28' E 000°16'5 9.9
2017-Aug-27 03:30N 38°23' E 000°12'510.0
2017-Aug-27 03:00N 38°19' E 000°08'510.0
2017-Aug-27 02:31N 38°15' E 000°05'5 9.9
2017-Aug-27 01:59N 38°11' E 000°01'5 9.8
2017-Aug-27 01:30N 38°07' W 000°02'1810.1
2017-Aug-26 23:44N 37°52' W 000°15'410.5
2017-Aug-26 23:22N 37°49' W 000°18'410.6
2017-Aug-26 23:00N 37°46' W 000°20'510.6
2017-Aug-26 22:30N 37°41' W 000°24'510.5
2017-Aug-26 22:00N 37°37' W 000°28'610.5
2017-Aug-26 21:28N 37°32' W 000°32'510.4
2017-Aug-26 21:00N 37°31' W 000°38'611.2
2017-Aug-26 20:30N 37°31' W 000°45'11 0.4
2017-Aug-25 18:29N 37°33' W 000°59'3 5.6
2017-Aug-25 17:52N 37°31' W 000°55'3 9.0
2017-Aug-25 17:30N 37°31' W 000°51'5 9.3
2017-Aug-25 16:59N 37°32' W 000°45'5 9.4
2017-Aug-25 16:26N 37°33' W 000°39'4 9.0
2017-Aug-25 16:00N 37°34' W 000°34'5 9.6
2017-Aug-25 15:30N 37°38' W 000°30'5 9.4
2017-Aug-25 15:00N 37°42' W 000°27'19 9.5
2017-Aug-25 13:03N 37°58' W 000°14'1 9.6
2017-Aug-25 12:59N 37°58' W 000°14'17 9.6
2017-Aug-25 11:13N 38°12' W 000°03'2 9.5
2017-Aug-25 10:59N 38°14' W 000°01'5 9.6
2017-Aug-25 10:30N 38°18' E 000°02'5 9.8
2017-Aug-25 10:00N 38°22' E 000°06'5 9.7
2017-Aug-25 09:30N 38°26' E 000°09'5 9.9
2017-Aug-25 08:59N 38°31' E 000°12'6 9.8
2017-Aug-25 08:21N 38°35' E 000°17'4 9.8
2017-Aug-25 07:55N 38°39' E 000°20'4 9.5
2017-Aug-25 07:30N 38°42' E 000°23'5 9.4
2017-Aug-25 07:01N 38°47' E 000°25'5 9.4
2017-Aug-25 06:31N 38°51' E 000°27'60 9.6
2017-Aug-25 00:13N 39°45' E 001°01'2 9.9
2017-Aug-25 00:00N 39°47' E 001°02'5 9.8
2017-Aug-24 23:27N 39°52' E 001°05'5 9.8
2017-Aug-24 22:58N 39°57' E 001°08'4 9.7
2017-Aug-24 22:30N 40°01' E 001°10'5 9.9
2017-Aug-24 22:00N 40°05' E 001°13'5 9.9
2017-Aug-24 21:29N 40°10' E 001°16'610.1
2017-Aug-24 20:52N 40°15' E 001°19'410.4
2017-Aug-24 20:31N 40°19' E 001°21'510.4
2017-Aug-24 20:00N 40°23' E 001°24'510.2
2017-Aug-24 19:30N 40°28' E 001°27'510.1
2017-Aug-24 19:01N 40°33' E 001°30'510.1
2017-Aug-24 18:30N 40°37' E 001°33'5 9.4
2017-Aug-24 18:00N 40°42' E 001°34'510.0
2017-Aug-24 17:30N 40°46' E 001°31'510.1
2017-Aug-24 17:01N 40°50' E 001°27'510.1
2017-Aug-24 16:30N 40°54' E 001°23'510.0
2017-Aug-24 16:00N 40°58' E 001°19'510.1
2017-Aug-24 15:30N 41°02' E 001°15'3 0.2
2017-Aug-24 01:04N 41°05' E 001°12'0 0.1
2017-Aug-24 01:00N 41°05' E 001°12'2 3.4
2017-Aug-24 00:30N 41°04' E 001°13'5 9.7
2017-Aug-24 00:00N 40°60' E 001°17'510.1
2017-Aug-23 23:30N 40°56' E 001°21'510.1
2017-Aug-23 23:00N 40°52' E 001°25'510.1
2017-Aug-23 22:29N 40°48' E 001°29'5 9.9
2017-Aug-23 22:00N 40°44' E 001°33'5 9.6
2017-Aug-23 21:30N 40°39' E 001°34'510.2
2017-Aug-23 21:00N 40°35' E 001°32'510.2
2017-Aug-23 20:30N 40°30' E 001°29'510.1
2017-Aug-23 20:00N 40°25' E 001°26'5 9.7
2017-Aug-23 19:30N 40°21' E 001°24'5 9.8
2017-Aug-23 19:00N 40°16' E 001°21'5 9.9
2017-Aug-23 18:30N 40°12' E 001°18'510.2
2017-Aug-23 18:00N 40°07' E 001°16'510.1
2017-Aug-23 17:30N 40°02' E 001°13'510.1
2017-Aug-23 17:00N 39°58' E 001°11'510.0
2017-Aug-23 16:28N 39°53' E 001°08'510.0
2017-Aug-23 16:00N 39°49' E 001°05'610.1
2017-Aug-23 15:25N 39°43' E 001°02'3410.3
2017-Aug-23 12:06N 39°12' E 000°44'310.2
2017-Aug-23 11:50N 39°09' E 000°43'510.3
2017-Aug-23 11:23N 39°05' E 000°41'1310.6
2017-Aug-23 10:12N 38°53' E 000°34'210.2
2017-Aug-23 10:00N 38°52' E 000°33'510.2
2017-Aug-23 09:30N 38°47' E 000°31'1010.2
2017-Aug-23 08:29N 38°38' E 000°24'510.3
2017-Aug-23 08:00N 38°34' E 000°21'510.3
2017-Aug-23 07:30N 38°30' E 000°17'510.3
2017-Aug-23 07:00N 38°25' E 000°13'510.4
2017-Aug-23 06:30N 38°21' E 000°10'510.1
2017-Aug-23 06:00N 38°17' E 000°06'5 9.9
2017-Aug-23 05:30N 38°12' E 000°03'510.0
2017-Aug-23 05:00N 38°08' W 000°01'510.2
2017-Aug-23 04:30N 38°04' W 000°04'610.3
2017-Aug-23 03:57N 37°59' W 000°08'410.2
2017-Aug-23 03:30N 37°56' W 000°12'510.1
2017-Aug-23 03:00N 37°51' W 000°15'610.2
2017-Aug-23 02:27N 37°47' W 000°19'510.2
2017-Aug-23 02:00N 37°43' W 000°23'510.2
2017-Aug-23 01:30N 37°39' W 000°26'510.2
2017-Aug-23 01:00N 37°34' W 000°30'510.0
2017-Aug-23 00:30N 37°31' W 000°34'510.5
2017-Aug-22 23:59N 37°31' W 000°41'510.7
2017-Aug-22 23:30N 37°31' W 000°48'14 0.6
2017-Aug-22 01:08N 37°33' W 001°06'0 0.0
2017-Aug-22 00:38N 37°33' W 001°06'0 0.1
2017-Aug-22 00:26N 37°33' W 001°06'0 0.6
2017-Aug-22 00:01N 37°33' W 001°06'5 8.3
2017-Aug-21 23:25N 37°32' W 000°60'4 9.2
2017-Aug-21 23:01N 37°31' W 000°55'5 9.4
2017-Aug-21 22:30N 37°32' W 000°49'11 9.3
2017-Aug-21 21:22N 37°33' W 000°36'4 9.1
2017-Aug-21 20:55N 37°36' W 000°32'5 9.1
2017-Aug-21 20:25N 37°40' W 000°29'4 9.3
2017-Aug-21 20:00N 37°43' W 000°26'18 9.1
2017-Aug-21 18:00N 37°58' W 000°14'  

Dump ship's entire track history